createdAt,value
2022-08-16T00:01:34.237Z,24.84
2022-08-16T00:04:09.683Z,24.79
2022-08-16T00:06:40.046Z,24.73
2022-08-16T00:09:10.594Z,24.68
2022-08-16T00:11:39.729Z,24.62
2022-08-16T00:14:10.170Z,24.60
2022-08-16T00:17:01.262Z,24.55
2022-08-16T00:19:41.561Z,24.50
2022-08-16T00:22:13.562Z,24.45
2022-08-16T00:24:44.951Z,24.42
2022-08-16T00:27:15.883Z,24.39
2022-08-16T00:29:45.864Z,24.36
2022-08-16T00:32:17.763Z,24.33
2022-08-16T00:34:53.749Z,24.31
2022-08-16T00:37:57.467Z,24.28
2022-08-16T00:40:34.234Z,24.25
2022-08-16T00:43:05.699Z,24.24
2022-08-16T00:45:57.936Z,24.24
2022-08-16T00:48:30.929Z,24.25
2022-08-16T00:51:00.239Z,24.26
2022-08-16T00:53:30.904Z,24.25
2022-08-16T00:56:05.307Z,24.19
2022-08-16T00:58:40.199Z,24.12
2022-08-16T01:01:13.903Z,24.06
2022-08-16T01:03:44.912Z,23.99
2022-08-16T01:06:32.649Z,23.93
2022-08-16T01:09:10.304Z,23.91
2022-08-16T01:11:54.081Z,23.96
2022-08-16T01:14:29.878Z,23.97
2022-08-16T01:17:01.505Z,23.99
2022-08-16T01:19:34.960Z,23.99
2022-08-16T01:22:47.669Z,23.96
2022-08-16T01:25:02.840Z,23.91
2022-08-16T01:27:34.837Z,23.87
2022-08-16T01:30:19.900Z,23.83
2022-08-16T01:32:59.592Z,23.78
2022-08-16T01:35:36.309Z,23.76
2022-08-16T01:38:19.740Z,23.69
2022-08-16T01:40:51.869Z,23.70
2022-08-16T01:43:21.648Z,23.73
2022-08-16T01:45:57.788Z,23.74
2022-08-16T01:48:30.153Z,23.75
2022-08-16T01:51:08.759Z,23.71
2022-08-16T01:53:40.589Z,23.70
2022-08-16T01:56:24.281Z,23.69
2022-08-16T01:58:54.971Z,23.67
2022-08-16T02:01:25.917Z,23.66
2022-08-16T02:03:58.379Z,23.66
2022-08-16T02:06:40.531Z,23.61
2022-08-16T02:09:17.946Z,23.60
2022-08-16T02:11:53.272Z,23.55
2022-08-16T02:14:26.397Z,23.59
2022-08-16T02:16:56.377Z,23.61
2022-08-16T02:19:58.549Z,23.62
2022-08-16T02:22:34.928Z,23.63
2022-08-16T02:25:14.612Z,23.61
2022-08-16T02:27:50.672Z,23.66
2022-08-16T02:30:36.961Z,23.58
2022-08-16T02:33:15.491Z,23.56
2022-08-16T02:35:49.778Z,23.54
2022-08-16T02:38:23.077Z,23.55
2022-08-16T02:40:54.437Z,23.53
2022-08-16T02:43:26.765Z,23.50
2022-08-16T02:45:56.302Z,23.47
2022-08-16T02:48:29.708Z,23.49
2022-08-16T02:51:05.912Z,23.47
2022-08-16T02:53:43.407Z,23.38
2022-08-16T02:56:14.772Z,23.34
2022-08-16T02:58:45.336Z,23.34
2022-08-16T03:01:25.325Z,23.31
2022-08-16T03:04:40.063Z,23.29
2022-08-16T03:06:56.722Z,23.24
2022-08-16T03:09:28.689Z,23.21
2022-08-16T03:11:58.532Z,23.19
2022-08-16T03:14:31.123Z,23.18
2022-08-16T03:17:00.980Z,23.13
2022-08-16T03:19:48.770Z,23.13
2022-08-16T03:22:29.055Z,23.08
2022-08-16T03:25:01.190Z,23.06
2022-08-16T03:27:32.364Z,23.04
2022-08-16T03:30:16.752Z,22.99
2022-08-16T03:32:47.187Z,22.96
2022-08-16T03:35:17.750Z,22.93
2022-08-16T03:38:02.145Z,22.88
2022-08-16T03:40:34.502Z,22.83
2022-08-16T03:43:20.258Z,22.75
2022-08-16T03:45:53.219Z,22.68
2022-08-16T03:48:36.407Z,22.65
2022-08-16T03:51:08.100Z,22.66
2022-08-16T03:53:38.410Z,22.68
2022-08-16T03:56:20.931Z,22.70
2022-08-16T03:58:52.585Z,22.72
2022-08-16T04:01:24.020Z,22.71
2022-08-16T04:03:57.618Z,22.69
2022-08-16T04:06:25.994Z,22.63
2022-08-16T04:08:54.917Z,22.60
2022-08-16T04:11:23.847Z,22.63
2022-08-16T04:13:59.360Z,22.64
2022-08-16T04:16:38.013Z,22.60
2022-08-16T04:19:06.465Z,22.56
2022-08-16T04:21:45.976Z,22.51
2022-08-16T04:24:16.236Z,22.43
2022-08-16T04:26:46.193Z,22.41
2022-08-16T04:29:23.667Z,22.42
2022-08-16T04:31:58.054Z,22.41
2022-08-16T04:34:30.330Z,22.40
2022-08-16T04:37:01.495Z,22.35
2022-08-16T04:39:44.971Z,22.30
2022-08-16T04:42:17.897Z,22.24
2022-08-16T04:44:53.548Z,22.19
2022-08-16T04:47:32.925Z,22.13
2022-08-16T04:50:05.076Z,22.12
2022-08-16T04:52:35.784Z,22.08
2022-08-16T04:55:08.225Z,22.05
2022-08-16T04:57:37.811Z,22.06
2022-08-16T05:00:32.001Z,22.09
2022-08-16T05:03:07.327Z,22.09
2022-08-16T05:05:44.986Z,22.09
2022-08-16T05:08:28.077Z,22.04
2022-08-16T05:11:00.294Z,21.99
2022-08-16T05:13:39.774Z,21.99
2022-08-16T05:16:11.873Z,22.03
2022-08-16T05:18:46.500Z,22.05
2022-08-16T05:21:15.540Z,22.08
2022-08-16T05:23:55.661Z,22.10
2022-08-16T05:26:28.293Z,22.11
2022-08-16T05:28:57.322Z,22.15
2022-08-16T05:31:29.680Z,22.20
2022-08-16T05:34:03.782Z,22.23
2022-08-16T05:36:34.421Z,22.25
2022-08-16T05:39:07.617Z,22.30
2022-08-16T05:41:44.960Z,22.32
2022-08-16T05:44:22.856Z,22.30
2022-08-16T05:46:55.041Z,22.31
2022-08-16T05:49:38.499Z,22.29
2022-08-16T05:52:11.218Z,22.28
2022-08-16T05:54:47.323Z,22.30
2022-08-16T05:57:17.431Z,22.28
2022-08-16T05:59:50.712Z,22.28
2022-08-16T06:02:33.421Z,22.24
2022-08-16T06:05:03.774Z,22.23
2022-08-16T06:07:32.382Z,22.22
2022-08-16T06:10:02.114Z,22.29
2022-08-16T06:12:31.185Z,22.27
2022-08-16T06:15:04.287Z,22.30
2022-08-16T06:17:42.928Z,22.34
2022-08-16T06:20:23.520Z,22.37
2022-08-16T06:23:03.069Z,22.38
2022-08-16T06:25:36.390Z,22.42
2022-08-16T06:28:10.313Z,22.47
2022-08-16T06:30:46.216Z,22.53
2022-08-16T06:33:22.343Z,22.60
2022-08-16T06:35:55.110Z,22.75
2022-08-16T06:38:32.212Z,22.95
2022-08-16T06:41:01.368Z,23.18
2022-08-16T06:43:30.807Z,23.36
2022-08-16T06:46:00.985Z,23.59
2022-08-16T06:48:33.879Z,23.86
2022-08-16T06:51:05.835Z,24.16
2022-08-16T06:53:36.522Z,24.46
2022-08-16T06:56:14.718Z,24.74
2022-08-16T06:58:51.905Z,25.05
2022-08-16T07:01:26.283Z,25.30
2022-08-16T07:04:10.301Z,25.61
2022-08-16T07:06:43.279Z,25.79
2022-08-16T07:09:12.992Z,25.85
2022-08-16T07:11:47.776Z,26.14
2022-08-16T07:14:23.746Z,26.32
2022-08-16T07:16:58.000Z,26.32
2022-08-16T07:20:01.459Z,26.37
2022-08-16T07:22:37.771Z,26.54
2022-08-16T07:25:08.767Z,26.76
2022-08-16T07:27:38.959Z,27.02
2022-08-16T07:30:39.450Z,27.24
2022-08-16T07:33:00.375Z,27.41
2022-08-16T07:35:28.617Z,27.52
2022-08-16T07:37:58.949Z,27.67
2022-08-16T07:40:57.976Z,27.82
2022-08-16T07:43:20.955Z,27.92
2022-08-16T07:45:53.215Z,28.17
2022-08-16T07:48:22.280Z,28.38
2022-08-16T07:50:55.808Z,28.40
2022-08-16T07:53:30.118Z,28.54
2022-08-16T07:56:00.674Z,28.68
2022-08-16T07:58:35.157Z,28.83
2022-08-16T08:01:10.873Z,29.02
2022-08-16T08:03:48.383Z,29.13
2022-08-16T08:06:25.804Z,29.17
2022-08-16T08:08:57.475Z,29.21
2022-08-16T08:11:29.684Z,29.33
2022-08-16T08:14:03.131Z,29.39
2022-08-16T08:16:38.965Z,29.48
2022-08-16T08:22:06.281Z,29.97
2022-08-16T08:24:39.218Z,30.19
2022-08-16T08:27:13.469Z,30.38
2022-08-16T08:30:50.268Z,30.24
2022-08-16T08:32:59.962Z,30.37
2022-08-16T08:35:50.887Z,30.67
2022-08-16T08:38:43.831Z,30.79
2022-08-16T08:41:13.908Z,31.09
2022-08-16T08:43:43.349Z,31.29
2022-08-16T08:47:00.770Z,31.39
2022-08-16T08:49:46.883Z,31.38
2022-08-16T08:52:37.905Z,31.46
2022-08-16T08:55:58.987Z,31.59
2022-08-16T08:58:55.017Z,31.89
2022-08-16T09:01:36.460Z,32.12
2022-08-16T09:04:08.072Z,32.40
2022-08-16T09:10:06.703Z,32.51
2022-08-16T09:13:32.808Z,32.58
2022-08-16T09:21:00.087Z,32.93
2022-08-16T09:27:46.798Z,33.18
2022-08-16T09:31:21.936Z,33.37
2022-08-16T09:38:59.803Z,33.39
2022-08-16T09:45:44.496Z,33.68
2022-08-16T09:48:37.137Z,33.72
2022-08-16T09:51:02.465Z,33.66
2022-08-16T09:53:32.462Z,33.72
2022-08-16T09:56:02.284Z,33.50
2022-08-16T09:58:41.319Z,33.46
2022-08-16T10:01:19.709Z,33.59
2022-08-16T10:04:01.750Z,33.69
2022-08-16T10:06:33.914Z,33.87
2022-08-16T10:09:06.036Z,34.19
2022-08-16T10:11:52.842Z,34.37
2022-08-16T10:14:24.829Z,34.47
2022-08-16T10:17:05.144Z,34.59
2022-08-16T10:19:35.221Z,34.63
2022-08-16T10:22:05.031Z,34.65
2022-08-16T10:24:33.910Z,34.67
2022-08-16T10:27:25.479Z,34.76
2022-08-16T10:30:00.502Z,34.95
2022-08-16T10:32:32.135Z,35.05
2022-08-16T10:35:01.990Z,35.12
2022-08-16T10:37:35.837Z,35.19
2022-08-16T10:40:05.677Z,35.33
2022-08-16T10:42:33.622Z,35.38
2022-08-16T10:45:02.655Z,35.32
2022-08-16T10:47:36.070Z,35.43
2022-08-16T10:50:19.916Z,35.25
2022-08-16T10:52:49.926Z,35.32
2022-08-16T10:58:11.553Z,35.59
2022-08-16T11:00:41.107Z,35.70
2022-08-16T11:05:59.702Z,35.84
2022-08-16T11:08:35.133Z,35.98
2022-08-16T11:11:12.766Z,36.08
2022-08-16T11:14:11.367Z,35.95
2022-08-16T11:19:25.941Z,35.91
2022-08-16T11:22:39.722Z,35.76
2022-08-16T11:24:45.048Z,35.95
2022-08-16T11:27:20.605Z,35.91
2022-08-16T11:29:49.610Z,36.02
2022-08-16T11:32:20.272Z,36.16
2022-08-16T11:35:10.472Z,36.23
2022-08-16T11:40:34.299Z,36.03
2022-08-16T11:43:05.249Z,36.09
2022-08-16T11:45:34.831Z,35.73
2022-08-16T11:48:03.610Z,35.47
2022-08-16T11:50:33.828Z,35.79
2022-08-16T11:53:03.609Z,36.07
2022-08-16T11:55:33.293Z,36.20
2022-08-16T11:58:01.891Z,36.26
2022-08-16T12:00:50.346Z,36.20
2022-08-16T12:03:25.091Z,36.20
2022-08-16T12:06:11.079Z,36.01
2022-08-16T12:08:53.193Z,35.92
2022-08-16T12:11:23.580Z,35.70
2022-08-16T12:13:54.944Z,35.49
2022-08-16T12:16:25.037Z,35.42
2022-08-16T12:18:59.348Z,35.75
2022-08-16T12:21:36.010Z,36.09
2022-08-16T12:24:16.819Z,36.26
2022-08-16T12:26:45.138Z,36.17
2022-08-16T12:29:13.093Z,35.89
2022-08-16T12:32:00.450Z,35.72
2022-08-16T12:34:30.303Z,35.55
2022-08-16T12:37:02.506Z,35.50
2022-08-16T12:39:31.438Z,35.54
2022-08-16T12:42:00.110Z,35.79
2022-08-16T12:44:31.309Z,36.02
2022-08-16T12:47:17.821Z,35.88
2022-08-16T12:49:45.734Z,35.62
2022-08-16T12:52:33.097Z,35.42
2022-08-16T12:55:02.847Z,35.30
2022-08-16T12:57:36.555Z,35.19
2022-08-16T13:00:07.215Z,35.10
2022-08-16T13:02:36.526Z,35.07
2022-08-16T13:05:06.935Z,35.00
2022-08-16T13:07:45.483Z,34.95
2022-08-16T13:10:37.435Z,34.96
2022-08-16T13:13:08.939Z,35.03
2022-08-16T13:15:50.030Z,35.01
2022-08-16T13:18:34.477Z,35.34
2022-08-16T13:21:05.008Z,35.64
2022-08-16T13:23:35.684Z,35.79
2022-08-16T13:26:05.274Z,35.74
2022-08-16T13:28:35.859Z,35.82
2022-08-16T13:31:05.627Z,35.59
2022-08-16T13:33:37.895Z,35.25
2022-08-16T13:36:17.090Z,35.09
2022-08-16T13:38:59.548Z,35.03
2022-08-16T13:41:29.971Z,35.03
2022-08-16T13:43:59.337Z,34.99
2022-08-16T13:46:28.386Z,35.33
2022-08-16T13:48:58.287Z,35.54
2022-08-16T13:51:29.204Z,35.76
2022-08-16T13:54:03.816Z,35.98
2022-08-16T13:56:37.993Z,36.03
2022-08-16T13:59:19.211Z,36.01
2022-08-16T14:01:55.777Z,35.84
2022-08-16T14:04:26.342Z,35.85
2022-08-16T14:06:55.288Z,35.89
2022-08-16T14:09:28.297Z,35.80
2022-08-16T14:11:56.759Z,35.69
2022-08-16T14:14:28.494Z,35.54
2022-08-16T14:16:58.021Z,35.50
2022-08-16T14:19:26.585Z,35.62
2022-08-16T14:22:13.623Z,35.74
2022-08-16T14:24:47.124Z,35.51
2022-08-16T14:27:16.198Z,35.43
2022-08-16T14:29:45.387Z,35.33
2022-08-16T14:32:33.734Z,35.28
2022-08-16T14:35:12.406Z,35.28
2022-08-16T14:37:42.952Z,35.23
2022-08-16T14:40:15.673Z,35.08
2022-08-16T14:42:45.276Z,35.12
2022-08-16T14:45:18.511Z,35.24
2022-08-16T14:47:49.885Z,35.28
2022-08-16T14:50:21.022Z,35.23
2022-08-16T14:52:56.499Z,35.18
2022-08-16T14:55:28.540Z,35.09
2022-08-16T14:57:57.020Z,35.07
2022-08-16T15:00:33.449Z,34.94
2022-08-16T15:03:04.836Z,34.80
2022-08-16T15:05:35.150Z,34.72
2022-08-16T15:08:03.415Z,34.63
2022-08-16T15:10:33.258Z,34.59
2022-08-16T15:13:01.866Z,34.45
2022-08-16T15:15:31.514Z,34.45
2022-08-16T15:18:01.471Z,34.50
2022-08-16T15:20:32.296Z,34.52
2022-08-16T15:23:02.682Z,34.55
2022-08-16T15:25:34.530Z,34.72
2022-08-16T15:28:05.638Z,34.86
2022-08-16T15:30:59.791Z,34.93
2022-08-16T15:33:25.297Z,35.00
2022-08-16T15:35:57.801Z,34.99
2022-08-16T15:38:55.060Z,34.80
2022-08-16T15:41:54.977Z,34.51
2022-08-16T15:44:27.420Z,34.57
2022-08-16T15:46:58.549Z,34.47
2022-08-16T15:49:34.753Z,34.43
2022-08-16T15:52:10.533Z,34.25
2022-08-16T15:54:51.439Z,34.29
2022-08-16T15:57:24.059Z,34.38
2022-08-16T15:59:56.271Z,34.37
2022-08-16T16:02:30.997Z,34.39
2022-08-16T16:05:04.336Z,34.39
2022-08-16T16:07:33.788Z,34.34
2022-08-16T16:10:03.132Z,34.28
2022-08-16T16:12:51.527Z,34.29
2022-08-16T16:15:24.422Z,34.35
2022-08-16T16:17:53.209Z,34.22
2022-08-16T16:20:27.205Z,34.17
2022-08-16T16:22:57.170Z,34.17
2022-08-16T16:25:26.748Z,34.09
2022-08-16T16:27:59.644Z,34.09
2022-08-16T16:30:37.359Z,34.10
2022-08-16T16:33:20.425Z,34.03
2022-08-16T16:35:55.426Z,34.02
2022-08-16T16:38:30.756Z,34.06
2022-08-16T16:40:59.495Z,34.08
2022-08-16T16:43:31.564Z,34.08
2022-08-16T16:46:01.751Z,34.05
2022-08-16T16:48:34.769Z,34.08
2022-08-16T16:51:09.521Z,34.11
2022-08-16T16:53:42.100Z,34.08
2022-08-16T16:56:20.495Z,34.02
2022-08-16T16:59:01.743Z,33.97
2022-08-16T17:01:35.127Z,33.98
2022-08-16T17:04:31.971Z,33.95
2022-08-16T17:07:02.151Z,33.83
2022-08-16T17:09:30.555Z,33.64
2022-08-16T17:11:59.461Z,33.56
2022-08-16T17:14:33.765Z,33.42
2022-08-16T17:17:06.668Z,33.44
2022-08-16T17:19:40.842Z,33.45
2022-08-16T17:22:14.264Z,33.39
2022-08-16T17:24:45.191Z,33.34
2022-08-16T17:30:15.728Z,33.25
2022-08-16T17:32:50.244Z,33.16
2022-08-16T17:35:21.253Z,33.11
2022-08-16T17:39:28.182Z,33.27
2022-08-16T17:39:28.223Z,33.07
2022-08-16T17:40:49.411Z,33.00
2022-08-16T17:43:29.650Z,32.94
2022-08-16T17:45:59.660Z,32.89
2022-08-16T17:48:30.729Z,32.80
2022-08-16T17:50:59.777Z,32.77
2022-08-16T17:53:27.923Z,32.78
2022-08-16T17:55:56.244Z,32.74
2022-08-16T17:58:24.562Z,32.66
2022-08-16T18:00:55.987Z,32.56
2022-08-16T18:04:07.333Z,32.48
2022-08-16T18:06:17.826Z,32.36
2022-08-16T18:08:48.404Z,32.35
2022-08-16T18:11:18.997Z,32.34
2022-08-16T18:13:53.857Z,32.24
2022-08-16T18:16:21.765Z,32.15
2022-08-16T18:18:51.363Z,32.01
2022-08-16T18:21:51.143Z,32.01
2022-08-16T18:24:19.708Z,31.98
2022-08-16T18:26:47.593Z,31.88
2022-08-16T18:29:16.223Z,31.71
2022-08-16T18:31:44.084Z,31.61
2022-08-16T18:34:13.364Z,31.52
2022-08-16T18:36:41.211Z,31.49
2022-08-16T18:39:10.370Z,31.41
2022-08-16T18:41:38.549Z,31.37
2022-08-16T18:44:25.171Z,31.36
2022-08-16T18:46:55.782Z,31.34
2022-08-16T18:49:25.129Z,31.32
2022-08-16T18:51:57.535Z,31.27
2022-08-16T18:54:26.316Z,31.24
2022-08-16T18:56:57.462Z,31.20
2022-08-16T18:59:30.560Z,31.15
2022-08-16T19:02:05.103Z,31.09
2022-08-16T19:04:47.497Z,31.02
2022-08-16T19:07:29.688Z,30.92
2022-08-16T19:09:59.679Z,30.85
2022-08-16T19:12:37.886Z,30.77
2022-08-16T19:15:14.281Z,30.68
2022-08-16T19:17:43.112Z,30.59
2022-08-16T19:20:15.379Z,30.54
2022-08-16T19:25:47.837Z,30.39
2022-08-16T19:28:33.333Z,30.31
2022-08-16T19:31:10.825Z,30.24
2022-08-16T19:33:39.477Z,30.18
2022-08-16T19:36:17.020Z,30.10
2022-08-16T19:38:57.410Z,30.00
2022-08-16T19:41:32.438Z,29.91
2022-08-16T19:44:00.321Z,29.80
2022-08-16T19:46:28.438Z,29.69
2022-08-16T19:48:56.319Z,29.58
2022-08-16T19:51:28.469Z,29.48
2022-08-16T19:53:56.725Z,29.42
2022-08-16T19:56:26.635Z,29.34
2022-08-16T20:01:44.093Z,29.22
2022-08-16T20:04:14.206Z,29.19
2022-08-16T20:06:44.864Z,29.15
2022-08-16T20:09:15.189Z,29.11
2022-08-16T20:11:46.316Z,29.07
2022-08-16T20:14:25.786Z,28.99
2022-08-16T20:16:56.211Z,28.91
2022-08-16T20:19:24.247Z,28.86
2022-08-16T20:21:53.666Z,28.83
2022-08-16T20:24:33.971Z,28.77
2022-08-16T20:27:04.956Z,28.72
2022-08-16T20:29:32.810Z,28.66
2022-08-16T20:32:00.760Z,28.63
2022-08-16T20:34:28.696Z,28.59
2022-08-16T20:36:58.402Z,28.55
2022-08-16T20:39:26.542Z,28.48
2022-08-16T20:41:55.080Z,28.41
2022-08-16T20:44:25.055Z,28.34
2022-08-16T20:46:54.653Z,28.28
2022-08-16T20:49:22.666Z,28.22
2022-08-16T20:51:55.870Z,28.16
2022-08-16T20:54:25.939Z,28.11
2022-08-16T20:56:53.777Z,28.04
2022-08-16T20:59:21.737Z,28.01
2022-08-16T21:01:50.658Z,27.95
2022-08-16T21:04:19.862Z,27.91
2022-08-16T21:06:53.953Z,27.84
2022-08-16T21:09:27.122Z,27.80
2022-08-16T21:11:56.444Z,27.77
2022-08-16T21:14:25.541Z,27.76
2022-08-16T21:16:55.062Z,27.75
2022-08-16T21:19:23.416Z,27.74
2022-08-16T21:21:51.323Z,27.72
2022-08-16T21:24:19.246Z,27.72
2022-08-16T21:26:55.443Z,27.73
2022-08-16T21:29:30.032Z,27.72
2022-08-16T21:32:12.945Z,27.70
2022-08-16T21:34:41.894Z,27.71
2022-08-16T21:37:09.990Z,27.70
2022-08-16T21:39:38.048Z,27.68
2022-08-16T21:42:11.011Z,27.64
2022-08-16T21:44:39.473Z,27.62
2022-08-16T21:47:08.460Z,27.59
2022-08-16T21:49:36.719Z,27.57
2022-08-16T21:52:05.515Z,27.56
2022-08-16T21:54:34.261Z,27.51
2022-08-16T21:57:02.139Z,27.47
2022-08-16T21:59:34.184Z,27.41
2022-08-16T22:02:03.923Z,27.32
2022-08-16T22:04:36.662Z,27.25
2022-08-16T22:07:06.946Z,27.19
2022-08-16T22:09:35.286Z,27.11
2022-08-16T22:12:03.164Z,27.07
2022-08-16T22:14:32.788Z,27.08
2022-08-16T22:17:00.637Z,27.06
2022-08-16T22:19:28.550Z,27.06
2022-08-16T22:21:56.853Z,27.05
2022-08-16T22:24:24.830Z,27.03
2022-08-16T22:26:52.657Z,27.00
2022-08-16T22:29:20.538Z,26.99
2022-08-16T22:31:49.776Z,26.98
2022-08-16T22:34:17.863Z,26.96
2022-08-16T22:36:46.182Z,26.98
2022-08-16T22:39:17.240Z,26.99
2022-08-16T22:41:46.072Z,26.99
2022-08-16T22:44:14.513Z,27.00
2022-08-16T22:46:42.540Z,26.97
2022-08-16T22:49:13.032Z,26.96
2022-08-16T22:51:41.431Z,26.94
2022-08-16T22:54:39.323Z,26.93
2022-08-16T22:56:58.042Z,26.93
2022-08-16T22:59:26.119Z,26.91
2022-08-16T23:01:54.518Z,26.85
2022-08-16T23:04:25.064Z,26.81
2022-08-16T23:06:53.033Z,26.77
2022-08-16T23:09:20.965Z,26.76
2022-08-16T23:11:48.848Z,26.74
2022-08-16T23:14:17.497Z,26.67
2022-08-16T23:16:47.401Z,26.58
2022-08-16T23:19:16.728Z,26.50
2022-08-16T23:21:49.245Z,26.41
2022-08-16T23:24:19.344Z,26.34
2022-08-16T23:26:48.990Z,26.28
2022-08-16T23:29:23.996Z,26.25
2022-08-16T23:31:55.082Z,26.24
2022-08-16T23:34:23.067Z,26.20
2022-08-16T23:36:52.316Z,26.17
2022-08-16T23:39:20.233Z,26.10
2022-08-16T23:41:48.303Z,26.05
2022-08-16T23:44:57.029Z,26.04
2022-08-16T23:47:05.998Z,26.02
2022-08-16T23:50:01.701Z,25.95
2022-08-16T23:52:42.124Z,25.90
2022-08-16T23:55:11.868Z,25.87
2022-08-16T23:57:39.770Z,25.89
